Latest Weather Observations for Larapuna (Eddystone Point)

IDT60801

Issued at 1:01 am EDT Tuesday 31 March 2015 (issued every 30 minutes, with the page automatically refreshed every 10 minutes)

About weather observations | Map of weather stations | Latest weather observations for TAS | Other Formats
Station Details ID: 092045 Name: LARAPUNA (EDDYSTONE POINT) Lat: -40.99 Lon: 148.35 Height: 19.7 m
Data from the previous 72 hours. | See also: Recent months at Larapuna (Eddystone Point)
Date/Time
EDT
Temp
°C
App
Temp
°C
Dew
Point
Rel
Hum
%
Delta-T
°C
Wind Press
QNH
hPa
Press
MSL
hPa
Rain
since 9 am
mm
Dir
 
Spd
km/h
Gust
km/h
Spd
kts
Gust
kts
31/01:00am 14.4 9.2 10.2 76 2.2 W 28 41 15 22 1022.9 1022.9 0.0
31/12:30am 14.8 9.3 10.4 75 2.3 WNW 30 39 16 21 1022.8 1022.8 0.0
31/12:00am 14.7 8.8 10.5 76 2.2 WNW 32 41 17 22 1022.9 1022.9 0.0
 
Date/Time
EDT
Temp
°C
App
Temp
°C
Dew
Point
Rel
Hum
%
Delta-T
°C
Wind Press
QNH
hPa
Press
MSL
hPa
Rain
since 9 am
mm
Dir
 
Spd
km/h
Gust
km/h
Spd
kts
Gust
kts
30/11:30pm 15.0 10.0 10.8 76 2.2 WNW 28 43 15 23 1022.7 1022.7 0.0
30/11:00pm 15.3 9.5 10.9 75 2.3 WNW 32 43 17 23 1022.5 1022.5 0.0
30/10:30pm 15.4 9.7 11.0 75 2.3 WNW 32 46 17 25 1022.4 1022.4 0.0
30/10:26pm 15.3 10.0 11.1 76 2.2 WNW 30 48 16 26 1022.4 1022.4 0.0
30/10:00pm 15.5 9.6 11.3 76 2.2 WNW 33 44 18 24 1022.2 1022.2 0.0
30/09:32pm 15.6 10.5 11.8 78 2.1 WNW 30 48 16 26 1022.0 1022.0 0.0
30/09:30pm 15.6 10.5 11.8 78 2.1 WNW 30 46 16 25 1022.1 1022.1 0.0
30/09:00pm 15.9 10.6 12.5 80 1.9 WNW 32 48 17 26 1021.8 1021.8 0.0
30/08:30pm 16.0 10.5 12.4 79 2.0 WNW 33 46 18 25 1021.6 1021.6 0.0
30/08:00pm 16.1 10.6 11.9 76 2.3 WNW 32 43 17 23 1021.3 1021.3 0.0
30/07:30pm 16.2 12.1 11.4 73 2.6 WNW 24 41 13 22 1021.2 1021.2 0.0
30/07:00pm 16.7 11.8 11.2 70 3.0 WNW 28 46 15 25 1020.9 1020.9 0.0
30/06:38pm 17.3 12.3 11.1 67 3.3 WNW 28 48 15 26 1020.4 1020.4 0.0
30/06:30pm 17.5 13.3 11.1 66 3.4 WNW 24 41 13 22 1020.5 1020.5 0.0
30/06:12pm 18.0 11.9 10.6 62 4.0 WNW 33 52 18 28 1020.2 1020.2 0.0
30/06:00pm 18.4 11.2 10.5 60 4.2 WNW 39 52 21 28 1019.8 1019.8 0.0
30/05:30pm 19.0 11.8 10.6 58 4.5 WNW 39 50 21 27 1019.7 1019.7 0.0
30/05:05pm 19.4 14.2 10.4 56 4.9 WNW 28 46 15 25 1020.0 1020.0 0.0
30/05:00pm 19.3 13.4 10.3 56 4.8 WNW 32 44 17 24 1020.1 1020.1 0.0
30/04:30pm 19.7 12.8 10.4 55 5.0 WNW 37 50 20 27 1019.7 1019.7 0.0
30/04:00pm 20.3 14.7 11.5 57 4.9 WNW 32 54 17 29 1019.9 1019.9 0.0
30/03:52pm 20.4 14.3 11.6 57 4.9 WNW 35 54 19 29 1020.0 1020.0 0.0
30/03:30pm 20.4 13.8 11.3 56 5.0 WNW 37 50 20 27 1019.8 1019.8 0.0
30/03:01pm 21.0 15.2 12.7 59 4.7 NW 35 54 19 29 1019.7 1019.7 0.0
30/03:00pm 21.1 15.9 13.3 61 4.5 NW 33 48 18 26 1019.7 1019.7 0.0
30/02:32pm 19.3 14.3 13.5 69 3.3 WNW 32 50 17 27 1020.0 1020.0 0.0
30/02:30pm 18.9 14.3 13.5 71 3.1 WNW 30 46 16 25 1020.0 1020.0 0.0
30/02:00pm 18.0 13.5 13.9 77 2.3 WNW 30 43 16 23 1020.5 1020.5 0.0
30/01:30pm 18.7 13.8 13.8 73 2.8 WNW 32 50 17 27 1020.8 1020.8 0.0
30/01:03pm 19.0 15.0 14.1 73 2.8 WNW 28 46 15 25 1020.9 1020.9 0.0
30/01:00pm 18.6 13.7 13.7 73 2.8 NW 32 46 17 25 1020.9 1020.9 0.0
30/12:30pm 18.8 13.8 13.9 73 2.8 WNW 33 50 18 27 1020.8 1020.8 0.0
30/12:07pm 18.8 14.2 13.6 72 3.0 NW 30 48 16 26 1020.7 1020.7 0.0
30/12:00pm 19.1 14.3 14.1 73 2.9 NW 32 48 17 26 1020.7 1020.7 0.0
30/11:30am 18.5 15.0 14.4 77 2.4 NW 26 35 14 19 1020.8 1020.8 0.0
30/11:00am 18.0 14.7 13.9 77 2.3 WNW 24 35 13 19 1020.9 1020.9 0.0
30/10:30am 18.1 15.6 14.0 77 2.3 NW 20 32 11 17 1020.8 1020.8 0.0
30/10:00am 17.5 13.1 13.0 75 2.5 NW 28 39 15 21 1020.6 1020.6 0.0
30/09:30am 16.9 12.5 13.0 78 2.2 NW 28 39 15 21 1020.3 1020.3 0.0
30/09:00am 16.4 12.3 12.6 78 2.1 WNW 26 35 14 19 1020.1 1020.1 0.0
30/08:30am 16.4 11.4 13.3 82 1.7 NW 32 44 17 24 1019.8 1019.8 0.0
30/08:00am 16.2 11.9 13.1 82 1.7 WNW 28 39 15 21 1019.8 1019.8 0.0
30/07:30am 16.2 11.5 13.3 83 1.6 WNW 30 39 16 21 1019.3 1019.3 0.0
30/07:00am 16.0 12.0 12.9 82 1.7 WNW 26 39 14 21 1019.2 1019.2 0.0
30/06:30am 16.4 11.9 12.6 78 2.1 NW 28 39 15 21 1019.2 1019.2 0.0
30/06:00am 16.3 12.1 12.5 78 2.1 NW 26 37 14 20 1019.1 1019.1 0.0
30/05:30am 15.9 12.3 13.2 84 1.5 NW 24 32 13 17 1018.9 1018.9 0.0
30/05:00am 15.9 12.0 13.2 84 1.5 NW 26 39 14 21 1018.9 1018.9 0.0
30/04:30am 15.9 12.3 13.0 83 1.6 NW 24 33 13 18 1019.1 1019.1 0.0
30/04:00am 15.9 12.3 13.0 83 1.6 NW 24 32 13 17 1019.2 1019.2 0.0
30/03:30am 16.2 13.0 13.1 82 1.7 NW 22 30 12 16 1019.3 1019.3 0.0
30/03:00am 16.1 12.4 12.8 81 1.8 NW 24 33 13 18 1019.4 1019.4 0.0
30/02:30am 16.1 12.0 12.8 81 1.8 NW 26 37 14 20 1019.7 1019.7 0.0
30/02:00am 16.3 13.1 13.2 82 1.7 NW 22 32 12 17 1019.9 1019.9 0.0
30/01:30am 16.4 12.4 12.9 80 1.9 NW 26 39 14 21 1019.9 1019.9 0.0
30/01:00am 16.3 11.9 13.0 81 1.8 NW 28 37 15 20 1019.9 1019.9 0.0
30/12:30am 16.1 12.5 13.0 82 1.7 NW 24 33 13 18 1020.0 1020.0 0.0
30/12:00am 16.0 13.2 13.3 84 1.5 NW 20 32 11 17 1020.1 1020.1 0.0
 
Date/Time
EDT
Temp
°C
App
Temp
°C
Dew
Point
Rel
Hum
%
Delta-T
°C
Wind Press
QNH
hPa
Press
MSL
hPa
Rain
since 9 am
mm
Dir
 
Spd
km/h
Gust
km/h
Spd
kts
Gust
kts
29/11:30pm 16.0 12.5 13.3 84 1.5 NW 24 30 13 16 1020.2 1020.2 0.0
29/11:00pm 15.8 12.2 12.9 83 1.6 NW 24 30 13 16 1020.2 1020.2 0.0
29/10:30pm 15.7 11.3 12.8 83 1.6 WNW 28 35 15 19 1020.1 1020.1 0.0
29/10:00pm 15.6 11.6 12.9 84 1.5 NW 26 33 14 18 1020.0 1020.0 0.0
29/09:30pm 15.5 11.8 12.6 83 1.6 NW 24 28 13 15 1019.9 1019.9 0.0
29/09:00pm 15.7 12.3 12.5 81 1.8 WNW 22 28 12 15 1019.8 1019.8 0.0
29/08:30pm 16.0 13.0 12.4 79 2.0 NW 20 28 11 15 1019.5 1019.5 0.0
29/08:00pm 16.1 12.2 12.1 77 2.2 WNW 24 35 13 19 1019.1 1019.1 0.0
29/07:30pm 16.1 13.1 12.1 77 2.2 WNW 19 24 10 13 1018.7 1018.7 0.0
29/07:00pm 16.6 12.6 11.7 73 2.7 WNW 24 37 13 20 1018.6 1018.6 0.0
29/06:30pm 17.2 12.0 11.7 70 3.0 WNW 30 43 16 23 1018.1 1018.1 0.0
29/06:04pm 17.8 12.3 11.8 68 3.3 WNW 32 50 17 27 1017.7 1017.7 0.0
29/06:00pm 17.6 11.1 11.6 68 3.3 WNW 37 50 20 27 1017.8 1017.8 0.0
29/05:30pm 18.6 13.4 11.7 64 3.8 WNW 30 46 16 25 1017.6 1017.6 0.0
29/05:03pm 19.0 14.2 11.6 62 4.1 WNW 28 46 15 25 1017.4 1017.4 0.0
29/05:00pm 18.9 14.1 11.5 62 4.1 WNW 28 41 15 22 1017.4 1017.4 0.0
29/04:30pm 17.6 12.1 12.3 71 2.9 WNW 33 44 18 24 1017.5 1017.5 0.0
29/04:02pm 18.1 11.9 11.4 65 3.7 WNW 35 54 19 29 1017.5 1017.5 0.0
29/04:00pm 17.9 11.6 11.2 65 3.6 WNW 35 50 19 27 1017.5 1017.5 0.0
29/03:31pm 17.9 10.6 11.7 67 3.4 WNW 41 59 22 32 1017.4 1017.4 0.0
29/03:30pm 17.8 10.1 11.6 67 3.4 WNW 43 59 23 32 1017.4 1017.4 0.0
29/03:00pm 19.4 12.6 10.7 57 4.7 WNW 37 57 20 31 1017.4 1017.4 0.0
29/02:34pm 19.7 12.5 10.7 56 4.9 W 39 57 21 31 1017.1 1017.1 0.0
29/02:30pm 19.9 12.3 10.6 55 5.0 W 41 57 22 31 1017.1 1017.1 0.0
29/02:00pm 19.7 11.6 10.1 54 5.1 WNW 43 61 23 33 1017.3 1017.3 0.0
29/01:30pm 19.5 12.2 10.2 55 5.0 W 39 61 21 33 1017.5 1017.5 0.0
29/01:01pm 19.6 11.6 8.9 50 5.6 W 41 61 22 33 1017.8 1017.8 0.0
29/01:00pm 19.7 12.2 9.6 52 5.4 W 39 54 21 29 1017.8 1017.8 0.0
29/12:30pm 19.8 13.7 10.5 55 5.0 WNW 33 52 18 28 1018.1 1018.1 0.0
29/12:03pm 19.1 12.3 9.3 53 5.2 WNW 35 56 19 30 1018.1 1018.1 0.0
29/12:00pm 19.3 12.6 9.5 53 5.2 WNW 35 46 19 25 1018.1 1018.1 0.0
29/11:30am 18.7 12.5 10.0 57 4.6 W 33 52 18 28 1018.2 1018.2 0.0
29/11:00am 17.9 11.4 10.5 62 4.0 W 35 54 19 29 1018.2 1018.2 0.0
29/10:30am 16.6 11.6 10.9 69 3.1 WNW 28 50 15 27 1018.2 1018.2 0.0
29/10:24am 16.2 11.0 10.3 68 3.1 WNW 28 50 15 27 1018.2 1018.2 0.0
29/10:00am 16.3 12.0 10.6 69 3.0 WNW 24 35 13 19 1018.0 1018.0 0.0
29/09:30am 15.1 9.1 10.1 72 2.6 WNW 32 50 17 27 1017.9 1017.9 0.0
29/09:00am 15.2 9.9 9.8 70 2.8 WNW 28 46 15 25 1017.7 1017.7 0.0
29/08:30am 13.9 10.0 9.3 74 2.3 WNW 20 30 11 16 1017.8 1017.8 0.0
29/08:00am 13.2 8.4 8.9 75 2.2 WNW 24 33 13 18 1017.7 1017.7 0.0
29/07:30am 12.9 7.4 9.0 77 2.0 WNW 28 43 15 23 1017.6 1017.6 0.0
29/07:00am 12.8 7.3 9.3 79 1.8 WNW 28 41 15 22 1017.0 1017.0 0.0
29/06:30am 12.9 7.9 9.4 79 1.8 WNW 26 37 14 20 1017.0 1017.0 0.0
29/06:00am 12.9 7.9 9.4 79 1.8 W 26 35 14 19 1017.3 1017.3 0.0
29/05:30am 12.9 7.1 9.4 79 1.8 NW 30 43 16 23 1016.7 1016.7 0.0
29/05:19am 13.0 6.8 9.3 78 1.9 WNW 32 50 17 27 1016.6 1016.6 0.0
29/05:00am 13.0 6.1 8.9 76 2.1 WNW 35 44 19 24 1016.4 1016.4 0.0
29/04:30am 13.1 5.5 9.0 76 2.1 WNW 39 56 21 30 1016.1 1016.1 0.0
29/04:23am 13.1 5.9 9.0 76 2.1 WNW 37 56 20 30 1016.1 1016.1 0.0
29/04:00am 13.1 5.9 9.2 77 2.0 WNW 37 52 20 28 1016.2 1016.2 0.0
29/03:30am 13.2 7.4 9.5 78 1.9 WNW 30 43 16 23 1016.6 1016.6 0.0
29/03:00am 13.4 8.0 9.6 78 1.9 NW 28 39 15 21 1016.9 1016.9 0.0
29/02:34am 13.4 7.6 9.5 77 2.0 WNW 30 48 16 26 1017.3 1017.3 0.0
29/02:30am 13.4 8.0 9.5 77 2.0 WNW 28 41 15 22 1017.4 1017.4 0.0
29/02:17am 13.4 8.1 9.8 79 1.8 NW 28 46 15 25 1017.4 1017.4 0.0
29/02:00am 13.4 8.9 10.0 80 1.8 NW 24 37 13 20 1017.7 1017.7 0.0
29/01:30am 13.8 9.3 10.2 79 1.9 NW 24 35 13 19 1017.7 1017.7 0.0
29/01:00am 13.7 7.4 11.0 84 1.4 WNW 35 46 19 25 1017.8 1017.8 0.0
29/12:42am 13.5 8.5 11.0 85 1.3 WNW 28 46 15 25 1017.6 1017.6 0.0
29/12:30am 13.4 9.9 10.9 85 1.3 WNW 20 32 11 17 1017.9 1017.9 0.0
29/12:00am 13.4 10.1 10.9 85 1.3 NW 19 26 10 14 1018.2 1018.2 0.0
 
Date/Time
EDT
Temp
°C
App
Temp
°C
Dew
Point
Rel
Hum
%
Delta-T
°C
Wind Press
QNH
hPa
Press
MSL
hPa
Rain
since 9 am
mm
Dir
 
Spd
km/h
Gust
km/h
Spd
kts
Gust
kts
28/11:30pm 13.4 10.9 10.9 85 1.3 NW 15 22 8 12 1018.5 1018.5 0.0
28/11:00pm 13.3 11.2 11.0 86 1.2 NW 13 20 7 11 1018.7 1018.7 0.0
28/10:30pm 13.6 9.8 11.1 85 1.3 NW 22 30 12 16 1018.6 1018.6 0.0
28/10:00pm 13.8 9.1 10.8 82 1.6 WNW 26 35 14 19 1018.7 1018.7 0.0
28/09:30pm 13.8 10.3 10.8 82 1.6 WNW 20 30 11 16 1018.8 1018.8 0.0
28/09:00pm 13.8 10.4 10.6 81 1.7 WNW 19 28 10 15 1018.7 1018.7 0.0
28/08:30pm 13.8 10.2 10.4 80 1.8 WNW 20 28 11 15 1018.8 1018.8 0.0
28/08:00pm 13.8 10.1 10.2 79 1.9 WNW 20 30 11 16 1018.8 1018.8 0.0
28/07:30pm 14.3 10.7 9.9 75 2.3 NW 19 26 10 14 1018.6 1018.6 0.0
28/07:00pm 14.8 10.9 9.6 71 2.7 WNW 20 35 11 19 1018.7 1018.7 0.0
28/06:30pm 15.7 10.4 9.8 68 3.1 WNW 28 43 15 23 1018.6 1018.6 0.0
28/06:29pm 15.7 10.4 9.8 68 3.1 NW 28 46 15 25 1018.6 1018.6 0.0
28/06:00pm 16.3 10.6 9.9 66 3.3 NW 30 37 16 20 1018.4 1018.4 0.0
28/05:30pm 17.0 11.7 9.9 63 3.7 NW 28 39 15 21 1018.3 1018.3 0.0
28/05:00pm 17.2 11.8 9.4 60 4.1 NW 28 39 15 21 1018.5 1018.5 0.0
28/04:30pm 17.4 11.9 9.3 59 4.2 NW 28 41 15 22 1018.7 1018.7 0.0
28/04:00pm 17.9 13.1 10.3 61 4.0 NW 26 35 14 19 1018.9 1018.9 0.0
28/03:30pm 18.7 14.6 10.0 57 4.6 NW 22 32 12 17 1019.1 1019.1 0.0
28/03:00pm 18.0 14.0 10.6 62 4.0 WNW 22 32 12 17 1019.4 1019.4 0.0
28/02:30pm 18.5 14.0 10.1 58 4.5 WNW 24 32 13 17 1019.7 1019.7 0.0
28/02:00pm 17.5 13.0 11.3 67 3.4 NNW 26 35 14 19 1020.0 1020.0 0.0
28/01:30pm 17.7 12.5 10.1 61 4.0 N 28 37 15 20 1020.4 1020.4 0.0
28/01:00pm 17.1 12.6 10.0 63 3.7 N 24 32 13 17 1020.8 1020.8 0.0
28/12:30pm 17.7 13.2 10.1 61 4.0 N 24 30 13 16 1021.1 1021.1 0.0
28/12:00pm 17.6 14.0 10.5 63 3.8 N 20 26 11 14 1021.4 1021.4 0.0
28/11:30am 17.2 13.0 7.5 53 4.9 N 19 24 10 13 1021.6 1021.6 0.0
28/11:00am 17.1 14.1 6.0 48 5.4 NNE 11 15 6 8 1021.8 1021.8 0.0
28/10:30am 16.6 14.1 6.7 52 4.9 N 9 13 5 7 1022.0 1022.0 0.0
28/10:00am 15.2 12.8 7.0 58 4.0 NW 9 13 5 7 1022.0 1022.0 0.0
28/09:30am 14.3 12.4 7.6 64 3.3 NW 7 9 4 5 1021.8 1021.8 0.0
28/09:00am 13.2 11.1 8.1 71 2.5 NW 9 9 5 5 1021.7 1021.7 1.6
28/08:30am 11.6 9.9 7.5 76 2.0 W 6 9 3 5 1021.5 1021.5 1.6
28/08:00am 10.4 8.6 8.0 85 1.2 SW 7 9 4 5 1021.3 1021.3 1.6
28/07:30am 9.6 7.3 7.5 87 1.0 SW 9 13 5 7 1021.1 1021.1 1.6
28/07:00am 9.7 7.7 7.1 84 1.2 SW 7 11 4 6 1020.9 1020.9 1.6
28/06:30am 9.6 7.0 6.3 80 1.5 WSW 9 11 5 6 1020.4 1020.4 1.6
28/06:00am 9.2 7.1 6.6 84 1.2 NW 7 9 4 5 1020.4 1020.4 1.6
28/05:30am 9.5 7.6 6.6 82 1.4 NW 6 7 3 4 1020.2 1020.2 1.6
28/05:00am 9.5 6.1 6.0 79 1.6 W 13 15 7 8 1019.9 1019.9 1.6
28/04:30am 11.6 7.9 8.1 79 1.7 SW 17 20 9 11 1019.6 1019.6 1.6
28/04:00am 12.0 7.4 8.1 77 1.9 SW 22 28 12 15 1019.5 1019.5 1.6
28/03:30am 11.7 7.4 7.8 77 1.9 SW 20 24 11 13 1019.6 1019.6 1.6
28/03:00am 12.2 7.7 8.5 78 1.8 SW 22 28 12 15 1019.7 1019.7 1.6
28/02:30am 11.9 7.6 8.0 77 1.9 SW 20 30 11 16 1019.6 1019.6 1.6
28/02:00am 12.0 8.2 7.7 75 2.1 SW 17 20 9 11 1019.7 1019.7 1.6
28/01:30am 12.1 7.5 8.0 76 2.0 SW 22 26 12 14 1019.5 1019.5 1.6

Other Formats:

Comma delimited format used in spreadsheet applications
http://www.bom.gov.au/fwo/IDT60801/IDT60801.94983.axf

JavaScript Object Notation format (JSON) in row-major order
http://www.bom.gov.au/fwo/IDT60801/IDT60801.94983.json